Time;durP1;ratioP1;P1;durP2;ratioP2;P2;SDS_P1;SDS_P2;PMS_P1;PMS_P2;Temp;Humidity;BMP_temperature;BMP_pressure;BME280_temperature;BME280_humidity;BME280_pressure;Samples;Min_cycle;Max_cycle;Signal;HPM_P1;HPM_P2
2022/04/01 00:02:11;;;;;;;41.37;8.00;;;;;;;14.80;66.97;93183.44;6149223;23;20195;-79
2022/04/01 00:04:39;;;;;;;39.47;8.27;;;;;;;14.67;67.85;93182.25;6149258;23;20174;-79
2022/04/01 00:07:06;;;;;;;32.97;7.53;;;;;;;14.55;68.03;93187.88;6148326;23;20178;-79
2022/04/01 00:09:34;;;;;;;41.33;8.20;;;;;;;14.52;67.65;93161.50;6148958;23;20652;-79
2022/04/01 00:12:01;;;;;;;46.80;7.93;;;;;;;14.43;68.89;93147.50;6148917;23;20175;-79
2022/04/01 00:14:28;;;;;;;36.13;8.17;;;;;;;14.38;70.02;93192.75;6148361;23;20168;-78
2022/04/01 00:16:55;;;;;;;43.90;9.37;;;;;;;14.34;70.20;93142.13;6149494;23;20615;-79
2022/04/01 00:19:22;;;;;;;46.77;8.70;;;;;;;14.23;71.30;93159.69;6149354;23;20257;-79
2022/04/01 00:21:49;;;;;;;35.20;8.63;;;;;;;14.16;71.28;93133.13;6148596;23;20196;-79
2022/04/01 00:24:16;;;;;;;35.40;7.90;;;;;;;14.10;71.87;93162.97;6149322;23;20179;-80
2022/04/01 00:26:45;;;;;;;39.10;8.40;;;;;;;13.99;71.82;93130.16;6148949;23;20176;-80
2022/04/01 00:29:20;;;;;;;43.67;8.73;;;;;;;14.08;71.51;93167.66;6148473;23;20167;-78
2022/04/01 00:31:48;;;;;;;45.50;8.87;;;;;;;14.12;70.45;93147.78;6149559;23;20171;-78
2022/04/01 00:34:16;;;;;;;37.67;8.37;;;;;;;14.13;70.44;93162.41;6150893;23;20198;-79
2022/04/01 00:36:45;;;;;;;39.43;8.87;;;;;;;14.16;70.74;93166.31;6151297;23;20171;-79
2022/04/01 00:39:18;;;;;;;36.50;8.80;;;;;;;14.09;71.21;93179.69;6150313;23;20510;-80
2022/04/01 00:41:51;;;;;;;47.00;8.33;;;;;;;14.08;72.00;93167.66;6151694;23;20198;-80
2022/04/01 00:44:23;;;;;;;42.23;8.90;;;;;;;14.09;70.66;93145.72;6151191;23;20226;-80
2022/04/01 00:47:01;;;;;;;47.33;8.77;;;;;;;14.02;70.89;93149.72;6151730;23;20233;-79
2022/04/01 00:49:31;;;;;;;47.10;10.17;;;;;;;13.92;71.67;93116.63;6151375;23;20207;-82
2022/04/01 00:52:00;;;;;;;40.30;9.77;;;;;;;13.92;71.64;93139.34;6149128;23;20171;-81
2022/04/01 00:54:29;;;;;;;49.97;10.60;;;;;;;13.94;67.37;93117.13;6150604;23;20171;-83
2022/04/01 00:56:57;;;;;;;61.23;10.60;;;;;;;14.03;70.47;93128.53;6150456;23;20168;-81
2022/04/01 00:59:27;;;;;;;40.73;9.50;;;;;;;14.12;69.27;93129.50;6150715;23;20168;-81
2022/04/01 01:01:53;;;;;;;55.53;9.60;;;;;;;14.30;64.66;93145.50;6151459;23;20979;-80
2022/04/01 01:04:21;;;;;;;46.93;10.63;;;;;;;14.30;67.47;93120.16;6149960;23;20171;-78
2022/04/01 01:06:50;;;;;;;46.50;10.83;;;;;;;14.34;67.90;93134.28;6148726;23;20164;-79
2022/04/01 01:09:18;;;;;;;50.77;10.60;;;;;;;14.29;68.04;93146.56;6147925;23;20172;-79
2022/04/01 01:11:55;;;;;;;48.97;11.67;;;;;;;14.23;67.67;93144.00;6147976;23;20171;-80
2022/04/01 01:14:50;;;;;;;44.40;9.80;;;;;;;14.29;67.21;93141.34;6148542;23;20163;-81
2022/04/01 01:17:17;;;;;;;36.80;9.67;;;;;;;14.43;65.41;93148.25;6148137;23;20167;-80
2022/04/01 01:19:48;;;;;;;47.77;10.33;;;;;;;14.40;65.11;93133.13;6148618;23;20517;-80
2022/04/01 01:22:16;;;;;;;50.23;10.23;;;;;;;14.55;64.80;93153.88;6148577;23;20188;-81
2022/04/01 01:24:44;;;;;;;47.50;9.63;;;;;;;14.58;65.00;93152.53;6148514;23;20164;-81
2022/04/01 01:27:13;;;;;;;45.53;11.10;;;;;;;14.58;64.84;93132.41;6150096;23;20167;-81
2022/04/01 01:29:42;;;;;;;51.00;10.57;;;;;;;14.59;64.65;93146.28;6150334;23;20172;-80
2022/04/01 01:32:10;;;;;;;41.83;10.03;;;;;;;14.58;64.93;93137.66;6149921;23;20160;-80
2022/04/01 01:34:39;;;;;;;53.80;10.67;;;;;;;14.58;64.07;93150.72;6149729;23;20668;-81
2022/04/01 01:37:06;;;;;;;49.37;10.83;;;;;;;14.67;63.30;93153.50;6149905;23;20579;-80
2022/04/01 01:39:33;;;;;;;48.20;10.03;;;;;;;14.69;63.34;93139.06;6149606;23;20172;-80
2022/04/01 01:42:01;;;;;;;44.87;10.93;;;;;;;14.68;62.77;93121.84;6149503;23;20229;-80
2022/04/01 01:44:29;;;;;;;53.90;11.10;;;;;;;14.92;60.30;93149.81;6150027;23;20184;-81
2022/04/01 01:46:56;;;;;;;48.30;10.13;;;;;;;15.01;60.26;93150.72;6150426;23;20172;-80
2022/04/01 01:49:23;;;;;;;47.50;9.97;;;;;;;15.00;60.51;93121.19;6149404;23;20666;-81
2022/04/01 01:54:44;;;;;;;46.70;9.63;;;;;;;15.08;58.78;93127.59;6150250;23;20162;-82
2022/04/01 01:57:16;;;;;;;65.27;10.53;;;;;;;15.11;58.62;93112.13;6150120;23;20174;-81
2022/04/01 01:59:43;;;;;;;60.37;9.97;;;;;;;15.19;58.01;93077.44;6150273;23;20688;-83
2022/04/01 02:02:29;;;;;;;51.73;10.10;;;;;;;15.23;58.10;93102.00;6150383;23;20219;-83
2022/04/01 02:04:56;;;;;;;60.70;10.17;;;;;;;15.25;58.02;93071.09;6150532;23;20164;-83
2022/04/01 02:07:24;;;;;;;56.63;10.67;;;;;;;15.29;57.21;93066.06;6150390;23;20621;-83
2022/04/01 02:09:51;;;;;;;58.07;9.87;;;;;;;15.31;57.66;93088.25;6150573;23;20235;-83
2022/04/01 02:12:19;;;;;;;59.80;9.60;;;;;;;15.31;58.28;93087.47;6154680;23;20251;-83
2022/04/01 02:14:46;;;;;;;52.93;10.23;;;;;;;15.29;57.57;93082.53;6150165;23;20643;-81
2022/04/01 02:17:13;;;;;;;59.70;10.60;;;;;;;15.31;57.64;93058.69;6149670;23;20179;-82
2022/04/01 02:19:40;;;;;;;64.23;10.40;;;;;;;15.35;57.31;93070.16;6150272;23;20168;-82
2022/04/01 02:22:07;;;;;;;65.10;10.60;;;;;;;15.39;56.74;93057.25;6149847;23;20175;-81
2022/04/01 02:24:36;;;;;;;58.33;10.20;;;;;;;15.39;56.80;93046.78;6149790;23;20551;-81
2022/04/01 02:27:03;;;;;;;62.50;9.87;;;;;;;15.36;56.92;93061.22;6149823;23;20254;-81
2022/04/01 02:29:31;;;;;;;64.90;9.83;;;;;;;15.38;57.28;93043.41;6149881;23;20186;-82
2022/04/01 02:31:58;;;;;;;55.20;10.30;;;;;;;15.38;56.66;93029.53;6149128;23;20168;-81
2022/04/01 02:34:25;;;;;;;58.43;11.17;;;;;;;15.35;57.73;93028.28;6149718;23;20172;-82
2022/04/01 02:36:52;;;;;;;67.60;11.13;;;;;;;15.37;56.97;93015.66;6150160;23;20176;-82
2022/04/01 02:39:19;;;;;;;61.70;10.63;;;;;;;15.35;57.08;93008.09;6149428;23;20176;-82
2022/04/01 02:41:46;;;;;;;57.73;10.60;;;;;;;15.40;57.28;93011.69;6149430;23;20199;-79
2022/04/01 02:44:13;;;;;;;55.03;10.80;;;;;;;15.38;57.36;93022.47;6150288;23;20513;-81
2022/04/01 02:46:43;;;;;;;68.00;11.30;;;;;;;15.31;57.06;93001.88;6149484;23;20163;-81
2022/04/01 02:49:12;;;;;;;62.57;11.83;;;;;;;15.42;56.04;93014.78;6149680;23;20195;-81
2022/04/01 02:51:41;;;;;;;56.23;11.03;;;;;;;15.43;55.34;92995.41;6149770;23;20198;-79
2022/04/01 02:54:09;;;;;;;74.03;10.13;;;;;;;15.51;54.42;92964.13;6149338;23;20180;-80
2022/04/01 02:56:38;;;;;;;68.43;11.00;;;;;;;15.58;54.53;92984.72;6149493;23;20179;-80
2022/04/01 02:59:08;;;;;;;72.80;11.57;;;;;;;15.60;54.67;93001.69;6149761;23;20167;-80
2022/04/01 03:01:35;;;;;;;65.20;10.97;;;;;;;15.61;55.19;92994.59;6149173;23;20192;-80
2022/04/01 03:04:04;;;;;;;72.77;11.80;;;;;;;15.62;54.18;93001.38;6149561;23;20170;-80
2022/04/01 03:06:33;;;;;;;69.83;11.67;;;;;;;15.70;53.07;92988.38;6149641;23;20172;-80
2022/04/01 03:08:59;;;;;;;65.07;10.77;;;;;;;15.76;52.94;92978.59;6149330;23;20168;-80
2022/04/01 03:11:26;;;;;;;89.33;12.90;;;;;;;15.77;52.93;92994.03;6149165;23;20174;-82
2022/04/01 03:13:53;;;;;;;63.57;10.13;;;;;;;15.67;53.31;92978.50;6149711;23;20168;-82
2022/04/01 03:16:20;;;;;;;68.33;10.27;;;;;;;15.76;53.18;93017.88;6149731;23;20171;-83
2022/04/01 03:18:47;;;;;;;65.37;11.13;;;;;;;15.74;52.39;92991.22;6149933;23;20172;-82
2022/04/01 03:21:18;;;;;;;71.33;10.37;;;;;;;15.78;52.95;93000.06;6149971;23;20190;-81
2022/04/01 03:23:45;;;;;;;73.80;11.73;;;;;;;15.73;52.88;92989.66;6150141;23;20163;-82
2022/04/01 03:26:12;;;;;;;74.87;11.53;;;;;;;15.82;52.18;93006.25;6149455;23;20160;-83
2022/04/01 03:28:39;;;;;;;76.53;12.50;;;;;;;15.82;51.59;93006.25;6149334;23;20258;-80
2022/04/01 03:31:06;;;;;;;76.03;11.93;;;;;;;15.86;51.99;92996.75;6149539;23;20179;-81
2022/04/01 03:33:34;;;;;;;75.23;12.10;;;;;;;15.84;51.98;93006.75;6149914;23;20180;-80
2022/04/01 03:36:05;;;;;;;89.80;12.60;;;;;;;15.93;50.53;92991.88;6149486;23;20172;-81
2022/04/01 03:38:33;;;;;;;74.50;11.20;;;;;;;16.00;50.53;92991.50;6150070;23;20229;-80
2022/04/01 03:41:01;;;;;;;95.80;12.40;;;;;;;16.02;51.22;92997.22;6149933;23;20175;-79
2022/04/01 03:43:29;;;;;;;86.30;12.97;;;;;;;15.94;50.90;92990.03;6149669;23;20195;-81
2022/04/01 03:45:59;;;;;;;76.00;12.30;;;;;;;16.01;50.90;92995.69;6149424;23;20162;-82
2022/04/01 03:48:31;;;;;;;76.00;13.33;;;;;;;16.04;50.10;92995.88;6149319;23;20199;-78
2022/04/01 03:50:59;;;;;;;77.80;12.00;;;;;;;16.01;50.79;92996.47;6148358;23;20214;-78
2022/04/01 03:53:28;;;;;;;76.33;11.67;;;;;;;15.95;49.98;92984.53;6148822;23;20156;-79
2022/04/01 03:55:57;;;;;;;78.20;11.03;;;;;;;16.06;50.38;93000.81;6148966;23;20156;-78
2022/04/01 03:58:29;;;;;;;73.63;11.03;;;;;;;16.14;48.66;93003.53;6148133;23;20174;-78
2022/04/01 04:00:59;;;;;;;91.90;12.80;;;;;;;16.12;49.69;92979.47;6148644;23;20188;-73
2022/04/01 04:03:26;;;;;;;86.83;12.87;;;;;;;16.18;48.82;92978.31;6148822;23;20662;-73
2022/04/01 04:05:54;;;;;;;91.07;13.10;;;;;;;16.23;49.66;92983.44;6134855;23;20168;-74
2022/04/01 04:08:23;;;;;;;79.43;12.10;;;;;;;16.19;49.29;92985.06;6124510;23;20191;-74
2022/04/01 04:10:52;;;;;;;87.23;13.10;;;;;;;16.21;48.56;92963.84;6132464;23;20245;-74
2022/04/01 04:13:23;;;;;;;84.07;12.97;;;;;;;16.15;49.31;92965.78;6134361;23;20167;-74
2022/04/01 04:16:04;;;;;;;85.20;12.33;;;;;;;16.19;48.75;92955.50;6138957;23;20167;-74
2022/04/01 04:18:35;;;;;;;74.83;13.20;;;;;;;16.23;48.36;92967.72;6128545;23;20168;-74
2022/04/01 04:21:11;;;;;;;101.03;13.33;;;;;;;16.29;47.66;92950.81;6130114;23;20242;-75
2022/04/01 04:23:44;;;;;;;87.20;13.17;;;;;;;16.31;47.78;92953.13;6135785;23;20232;-75
2022/04/01 04:26:15;;;;;;;91.43;13.07;;;;;;;16.37;47.14;92960.59;6141087;23;20261;-73
2022/04/01 04:28:48;;;;;;;95.63;14.00;;;;;;;16.42;46.34;92957.84;6139946;23;20156;-73
2022/04/01 04:31:15;;;;;;;109.90;14.27;;;;;;;16.48;46.39;92967.16;6137243;23;20334;-73
2022/04/01 04:33:48;;;;;;;102.67;14.80;;;;;;;16.48;46.55;92946.19;6128027;23;20253;-73
2022/04/01 04:36:18;;;;;;;101.83;12.23;;;;;;;16.60;46.35;92961.44;6130751;23;20168;-73
2022/04/01 04:38:47;;;;;;;110.77;12.80;;;;;;;16.64;45.87;92972.91;6145502;23;20168;-73
2022/04/01 04:41:15;;;;;;;79.67;12.90;;;;;;;16.69;45.65;92992.97;6136616;23;20175;-74
2022/04/01 04:43:45;;;;;;;85.60;14.73;;;;;;;16.71;45.40;92986.38;6138195;23;20206;-74
2022/04/01 04:46:15;;;;;;;107.80;14.03;;;;;;;16.77;45.48;92987.81;6144211;23;20221;-74
2022/04/01 04:48:43;;;;;;;79.13;13.47;;;;;;;16.82;45.14;92987.72;6133911;23;20199;-73
2022/04/01 04:51:11;;;;;;;109.27;14.13;;;;;;;16.84;44.89;92979.53;6135801;23;20183;-75
2022/04/01 04:53:39;;;;;;;110.63;14.70;;;;;;;16.86;45.00;92980.78;6136148;23;20176;-74
2022/04/01 04:56:07;;;;;;;104.13;15.20;;;;;;;16.86;44.91;92980.78;6144347;23;20175;-75
2022/04/01 04:58:39;;;;;;;89.63;12.43;;;;;;;16.96;44.56;93001.56;6143892;23;20714;-76
2022/04/01 05:01:21;;;;;;;106.63;15.13;;;;;;;16.97;44.11;92982.09;6143120;23;20156;-74
2022/04/01 05:04:13;;;;;;;95.43;13.73;;;;;;;17.03;44.23;92973.03;6145189;23;20190;-75
2022/04/01 05:06:50;;;;;;;92.57;14.90;;;;;;;17.00;45.65;92988.59;6145209;23;20203;-76
2022/04/01 05:09:26;;;;;;;85.27;13.23;;;;;;;16.94;45.62;92987.94;6143992;23;20210;-75
2022/04/01 05:12:04;;;;;;;73.67;12.37;;;;;;;16.73;47.93;92994.72;6144310;23;20171;-75
2022/04/01 05:14:49;;;;;;;65.53;11.37;;;;;;;16.67;50.43;92969.69;6144851;23;20242;-75
2022/04/01 05:17:27;;;;;;;71.10;11.13;;;;;;;16.24;52.04;92995.47;6143720;23;20217;-75
2022/04/01 05:19:59;;;;;;;80.27;12.07;;;;;;;16.07;51.14;92963.06;6145755;23;20187;-75
2022/04/01 05:22:36;;;;;;;84.23;13.50;;;;;;;16.04;51.51;92976.75;6140083;23;20196;-75
2022/04/01 05:25:05;;;;;;;78.40;11.50;;;;;;;15.95;53.63;92979.28;6140192;23;20530;-75
2022/04/01 05:27:40;;;;;;;60.57;12.07;;;;;;;15.96;54.16;92967.72;6144597;23;20183;-74
2022/04/01 05:30:13;;;;;;;65.10;12.57;;;;;;;15.94;54.03;92987.44;6146695;23;20171;-75
2022/04/01 05:32:51;;;;;;;74.17;12.03;;;;;;;15.78;55.37;92974.63;6141572;23;20168;-75
2022/04/01 05:35:20;;;;;;;60.73;12.17;;;;;;;15.63;55.66;92956.59;6145153;23;20164;-75
2022/04/01 05:37:48;;;;;;;89.53;13.20;;;;;;;15.61;55.64;92974.41;6145736;23;20233;-75
2022/04/01 05:40:17;;;;;;;80.23;12.17;;;;;;;15.56;55.95;92986.81;6145051;23;20233;-75
2022/04/01 05:42:47;;;;;;;81.13;12.40;;;;;;;15.46;55.46;92982.53;6144840;23;20693;-74
2022/04/01 05:45:14;;;;;;;76.23;11.93;;;;;;;15.43;54.91;92983.09;6144760;23;20160;-73
2022/04/01 05:47:44;;;;;;;77.13;12.97;;;;;;;15.35;55.66;92968.81;6144758;23;20260;-73
2022/04/01 05:50:12;;;;;;;62.60;12.53;;;;;;;15.19;56.31;92962.31;6143682;23;20175;-82
2022/04/01 05:52:39;;;;;;;58.40;11.40;;;;;;;15.18;56.52;92970.47;6148136;23;20183;-82
2022/04/01 05:55:11;;;;;;;68.37;11.67;;;;;;;15.21;56.13;92981.09;6147872;23;20160;-77
2022/04/01 05:57:38;;;;;;;58.63;11.67;;;;;;;15.20;56.75;92976.16;6146573;23;20611;-72
2022/04/01 06:00:06;;;;;;;72.77;11.83;;;;;;;15.19;55.80;92975.38;6146325;23;20164;-74
2022/04/01 06:03:09;;;;;;;73.50;11.93;;;;;;;15.18;56.14;92976.44;6139791;23;20513;-73
2022/04/01 06:05:40;;;;;;;85.80;12.07;;;;;;;15.28;55.43;92978.13;6146435;23;20508;-73
2022/04/01 06:08:16;;;;;;;65.40;12.63;;;;;;;15.14;57.03;92988.56;6135985;23;20168;-74
2022/04/01 06:10:53;;;;;;;83.27;12.53;;;;;;;15.14;57.20;92988.56;6145790;23;20599;-73
2022/04/01 06:13:31;;;;;;;69.20;12.33;;;;;;;15.07;57.40;92963.81;6134893;23;20169;-73
2022/04/01 06:16:09;;;;;;;77.43;12.07;;;;;;;15.19;57.51;92962.31;6145297;23;20611;-73
2022/04/01 06:18:51;;;;;;;74.53;12.00;;;;;;;15.21;57.93;92980.31;6145378;23;20171;-73
2022/04/01 06:21:23;;;;;;;61.50;11.10;;;;;;;15.29;57.55;92990.91;6145602;23;20258;-73
2022/04/01 06:24:09;;;;;;;71.90;11.87;;;;;;;15.26;57.16;92990.72;6145031;23;20498;-73
2022/04/01 06:26:40;;;;;;;66.40;12.70;;;;;;;15.27;57.10;92993.03;6145893;23;20164;-73
2022/04/01 06:29:42;;;;;;;80.00;12.27;;;;;;;15.26;57.73;92988.91;6145729;23;20282;-74
2022/04/01 06:32:13;;;;;;;73.53;12.10;;;;;;;15.35;57.52;92981.16;6146469;23;20202;-76
2022/04/01 06:35:05;;;;;;;66.97;11.33;;;;;;;15.40;57.92;92988.91;6143154;23;20164;-74
2022/04/01 06:37:37;;;;;;;66.97;13.10;;;;;;;15.45;58.31;92994.06;6141263;23;20171;-73
2022/04/01 06:40:07;;;;;;;66.93;12.50;;;;;;;15.46;57.79;93013.94;6144860;23;20164;-73
2022/04/01 06:42:37;;;;;;;72.50;12.07;;;;;;;15.47;58.07;92991.19;6122042;23;20192;-73
2022/04/01 06:45:05;;;;;;;68.00;12.37;;;;;;;15.53;57.68;92980.31;6141576;23;20626;-73
2022/04/01 06:47:32;;;;;;;67.53;11.97;;;;;;;15.54;57.41;92994.97;6144653;23;20186;-73
2022/04/01 06:50:00;;;;;;;65.00;11.63;;;;;;;15.63;57.71;93002.94;6136603;23;20162;-74
2022/04/01 06:52:27;;;;;;;93.60;13.13;;;;;;;15.73;56.65;93026.31;6136569;23;20623;-74
2022/04/01 06:54:55;;;;;;;81.80;13.37;;;;;;;15.79;56.57;93023.31;6147298;23;20171;-78
2022/04/01 06:57:22;;;;;;;57.53;12.67;;;;;;;15.79;56.63;93009.44;6147343;23;20183;-78
2022/04/01 06:59:49;;;;;;;72.33;11.13;;;;;;;15.74;56.69;92999.84;6147160;23;20168;-79
2022/04/01 07:02:16;;;;;;;82.00;13.20;;;;;;;15.80;56.07;93022.28;6146906;23;20630;-81
2022/04/01 07:04:42;;;;;;;81.97;13.27;;;;;;;15.84;55.75;92993.66;6144741;23;20623;-79
2022/04/01 07:07:11;;;;;;;80.17;12.50;;;;;;;15.89;56.00;93012.69;6146813;23;20176;-79
2022/04/01 07:09:38;;;;;;;80.67;12.20;;;;;;;15.89;56.15;93020.53;6147540;23;20225;-83
2022/04/01 07:12:06;;;;;;;67.57;12.40;;;;;;;15.99;56.30;93026.66;6147090;23;20178;-79
2022/04/01 07:14:35;;;;;;;81.23;12.73;;;;;;;16.10;55.51;93020.94;6146615;23;20892;-78
2022/04/01 07:17:02;;;;;;;77.13;13.40;;;;;;;16.23;55.76;93011.50;6150367;23;20179;-78
2022/04/01 07:19:29;;;;;;;76.50;12.87;;;;;;;16.27;55.70;93025.56;6148998;23;20171;-79
2022/04/01 07:21:56;;;;;;;71.60;12.20;;;;;;;16.33;55.20;93008.69;6148789;23;20171;-78
2022/04/01 07:24:25;;;;;;;74.63;12.30;;;;;;;16.49;54.71;93009.91;6148557;23;20196;-76
2022/04/01 07:26:53;;;;;;;91.93;12.83;;;;;;;16.63;54.44;93002.03;6149906;23;20207;-84
2022/04/01 07:29:19;;;;;;;89.13;12.97;;;;;;;16.70;54.00;93005.81;6147445;23;20160;-77
2022/04/01 07:34:36;;;;;;;71.17;12.13;;;;;;;16.93;52.40;93015.28;6147456;23;20183;-78
2022/04/01 07:37:04;;;;;;;75.77;11.13;;;;;;;17.01;51.65;92995.41;6147616;23;20171;-78
2022/04/01 07:39:34;;;;;;;73.60;12.20;;;;;;;17.06;52.10;92981.38;6147421;23;20232;-78
2022/04/01 07:42:01;;;;;;;66.10;10.47;;;;;;;17.25;50.95;92989.84;6147734;23;20168;-79
2022/04/01 07:44:28;;;;;;;88.10;12.83;;;;;;;17.36;50.04;92981.44;6148575;23;20196;-82
2022/04/01 07:46:56;;;;;;;88.20;13.67;;;;;;;17.53;49.28;92993.88;6144081;23;20167;-78
2022/04/01 07:49:29;;;;;;;79.03;12.87;;;;;;;17.57;49.14;92989.63;6146820;23;20211;-78
2022/04/01 07:51:56;;;;;;;63.07;12.10;;;;;;;17.71;48.81;92986.88;6132718;23;20171;-78
2022/04/01 07:54:23;;;;;;;68.97;11.83;;;;;;;17.78;48.75;92993.25;6144396;23;20650;-79
2022/04/01 07:56:52;;;;;;;67.97;12.80;;;;;;;17.96;47.76;92973.84;6148701;23;20191;-79
2022/04/01 07:59:21;;;;;;;88.05;13.30;;;;;;;18.05;47.77;92963.34;6148717;23;20168;-77
2022/04/01 08:01:48;;;;;;;81.53;13.32;;;;;;;18.21;46.86;92990.75;6149647;23;20168;-78
2022/04/01 08:04:15;;;;;;;75.13;13.73;;;;;;;18.27;46.37;92997.44;6148558;23;20202;-76
2022/04/01 08:06:42;;;;;;;76.23;12.50;;;;;;;18.35;45.63;92975.66;6148040;23;20238;-78
2022/04/01 08:09:08;;;;;;;87.47;14.15;;;;;;;18.43;45.50;92982.00;6148530;23;20183;-79
2022/04/01 08:11:36;;;;;;;83.32;13.20;;;;;;;18.50;44.31;92990.25;6148694;23;20178;-79
2022/04/01 08:14:05;;;;;;;70.63;12.13;;;;;;;18.72;41.35;92981.44;6148806;23;20207;-79
2022/04/01 08:16:32;;;;;;;87.53;12.25;;;;;;;18.85;40.95;93036.56;6148749;23;20655;-80
2022/04/01 08:18:59;;;;;;;67.70;11.75;;;;;;;18.89;39.96;92994.63;6148781;23;20172;-79
2022/04/01 08:21:26;;;;;;;95.07;11.90;;;;;;;19.04;40.08;92994.94;6139853;23;20170;-80
2022/04/01 08:23:54;;;;;;;78.10;11.15;;;;;;;19.20;40.24;92997.84;6146799;23;20191;-81
2022/04/01 08:26:21;;;;;;;79.55;11.85;;;;;;;19.23;39.46;92984.84;6147017;23;20168;-82
2022/04/01 08:28:48;;;;;;;78.55;11.35;;;;;;;19.33;39.35;92990.88;6147103;23;20237;-81
2022/04/01 08:31:16;;;;;;;88.10;11.23;;;;;;;19.42;39.70;92986.41;6149453;23;20260;-81
2022/04/01 08:33:44;;;;;;;75.32;11.57;;;;;;;19.55;39.60;92954.59;6148696;23;20583;-80
2022/04/01 08:36:12;;;;;;;74.00;10.45;;;;;;;19.62;38.61;92970.69;6147178;23;20770;-79
2022/04/01 08:38:40;;;;;;;73.35;12.07;;;;;;;19.49;39.59;92955.84;6149515;23;20221;-78
2022/04/01 08:41:07;;;;;;;74.03;11.57;;;;;;;19.45;39.37;92967.34;6149645;22;20560;-79
2022/04/01 08:43:37;;;;;;;70.90;11.75;;;;;;;19.44;39.79;92960.50;6150010;23;20203;-79
2022/04/01 08:46:06;;;;;;;86.78;12.10;;;;;;;19.47;40.53;92975.69;6149744;23;20168;-83
2022/04/01 08:48:35;;;;;;;63.35;11.65;;;;;;;19.33;40.72;92943.47;6148789;23;20203;-80
2022/04/01 08:51:05;;;;;;;72.22;11.95;;;;;;;19.25;40.82;92935.25;6148954;23;20183;-78
2022/04/01 08:53:37;;;;;;;73.10;11.43;;;;;;;19.23;41.08;92926.91;6148922;23;20168;-78
2022/04/01 08:56:04;;;;;;;74.50;11.05;;;;;;;19.15;41.65;92922.41;6149179;23;20174;-77
2022/04/01 08:58:33;;;;;;;73.15;10.95;;;;;;;19.09;41.41;92905.22;6149758;23;20171;-77
2022/04/01 09:01:01;;;;;;;84.00;12.95;;;;;;;19.00;42.15;92908.97;6148769;23;20199;-82
2022/04/01 09:03:28;;;;;;;84.27;11.93;;;;;;;18.91;42.62;92892.41;6149577;23;20214;-77
2022/04/01 09:05:59;;;;;;;80.78;11.80;;;;;;;18.98;42.39;92884.81;6149275;23;20172;-78
2022/04/01 09:08:27;;;;;;;66.68;10.90;;;;;;;19.01;42.45;92892.88;6149492;23;20163;-82
2022/04/01 09:10:57;;;;;;;74.90;11.63;;;;;;;18.96;43.11;92874.56;6149084;23;20512;-77
2022/04/01 09:13:26;;;;;;;82.10;12.77;;;;;;;18.91;42.80;92882.66;6149449;23;20152;-79
2022/04/01 09:15:53;;;;;;;61.22;10.10;;;;;;;19.03;42.68;92869.63;6149086;23;20172;-79
2022/04/01 09:18:37;;;;;;;84.28;11.55;;;;;;;19.23;42.07;92855.00;6148314;23;20244;-79
2022/04/01 09:21:08;;;;;;;85.20;11.63;;;;;;;19.25;41.70;92865.97;6148865;23;20168;-79
2022/04/01 09:23:36;;;;;;;67.63;10.73;;;;;;;19.35;41.63;92859.59;6148148;23;20206;-79
2022/04/01 09:26:03;;;;;;;69.63;11.32;;;;;;;19.45;41.26;92854.78;6147609;23;20194;-77
2022/04/01 09:28:32;;;;;;;64.82;10.82;;;;;;;19.55;41.16;92857.06;6148779;23;20171;-79
2022/04/01 09:31:07;;;;;;;65.97;11.20;;;;;;;19.74;40.91;92848.75;6145912;23;20172;-79
2022/04/01 09:33:45;;;;;;;81.90;11.00;;;;;;;19.80;41.19;92860.66;6146200;23;20231;-81
2022/04/01 09:36:16;;;;;;;71.78;11.02;;;;;;;19.69;40.88;92844.44;6148325;23;20175;-79
2022/04/01 09:39:04;;;;;;;77.57;12.38;;;;;;;19.55;41.83;92854.44;6148813;23;20163;-80
2022/04/01 09:41:33;;;;;;;68.55;10.90;;;;;;;19.62;41.63;92848.69;6150767;23;20167;-81
2022/04/01 09:44:07;;;;;;;82.13;11.48;;;;;;;19.86;40.71;92858.59;6149215;23;20195;-79
2022/04/01 09:46:35;;;;;;;72.90;11.40;;;;;;;19.98;39.94;92856.06;6148717;23;20547;-79
2022/04/01 09:49:02;;;;;;;68.70;10.05;;;;;;;20.13;40.03;92837.03;6148888;23;20401;-81
2022/04/01 09:51:35;;;;;;;74.05;10.38;;;;;;;20.46;39.63;92864.28;6148486;23;20171;-79
2022/04/01 09:54:04;;;;;;;67.75;11.07;;;;;;;20.61;39.71;92870.84;6146631;23;20156;-79
2022/04/01 09:56:43;;;;;;;71.93;11.30;;;;;;;20.64;39.58;92857.00;6146228;23;20516;-78
2022/04/01 09:59:11;;;;;;;70.15;12.30;;;;;;;20.84;39.64;92856.97;6146978;23;20171;-77
2022/04/01 10:01:39;;;;;;;82.10;12.35;;;;;;;20.74;39.36;92867.16;6148391;23;20661;-76
2022/04/01 10:04:06;;;;;;;66.95;10.38;;;;;;;20.77;39.41;92859.38;6147891;23;20191;-76
2022/04/01 10:06:36;;;;;;;70.70;10.93;;;;;;;20.94;39.00;92877.69;6147807;23;20217;-76
2022/04/01 10:09:05;;;;;;;49.40;9.65;;;;;;;21.03;38.62;92872.34;6146448;23;20202;-78
2022/04/01 10:11:32;;;;;;;67.38;11.63;;;;;;;21.06;38.05;92873.56;6148741;23;20477;-77
2022/04/01 10:14:03;;;;;;;76.15;11.02;;;;;;;20.98;38.24;92877.06;6149095;23;20168;-78
2022/04/01 10:16:33;;;;;;;59.22;10.65;;;;;;;20.89;38.43;92885.81;6148315;23;20160;-78
2022/04/01 10:19:06;;;;;;;74.70;10.88;;;;;;;20.82;38.19;92863.66;6149113;23;20310;-78
2022/04/01 10:21:36;;;;;;;72.35;10.63;;;;;;;21.09;37.93;92857.06;6149020;23;20175;-77
2022/04/01 10:24:11;;;;;;;59.67;10.18;;;;;;;21.18;37.58;92837.38;6147500;23;20203;-78
2022/04/01 10:26:46;;;;;;;60.25;10.27;;;;;;;21.23;37.89;92854.91;6147244;23;20499;-82
2022/04/01 10:29:14;;;;;;;70.20;10.90;;;;;;;21.38;37.00;92846.34;6147881;23;20178;-79
2022/04/01 10:31:42;;;;;;;59.45;10.55;;;;;;;21.39;36.77;92832.78;6148791;23;20217;-80
2022/04/01 10:34:22;;;;;;;65.20;10.85;;;;;;;21.48;37.04;92836.09;6148530;23;20646;-78
2022/04/01 10:37:00;;;;;;;57.38;9.85;;;;;;;21.43;37.09;92868.03;6148521;23;20172;-79
2022/04/01 10:39:28;;;;;;;62.85;10.60;;;;;;;21.39;37.17;92846.00;6148086;23;20164;-76
2022/04/01 10:42:11;;;;;;;70.55;10.85;;;;;;;21.53;36.71;92837.75;6149482;23;20171;-78
2022/04/01 10:44:50;;;;;;;47.08;9.38;;;;;;;21.79;36.33;92837.44;6151475;23;20237;-81
2022/04/01 10:47:18;;;;;;;58.75;10.20;;;;;;;21.81;36.12;92828.06;6148680;23;20159;-78
2022/04/01 10:52:31;;;;;;;52.92;11.10;;;;;;;21.71;36.78;92833.00;6148841;23;20239;-78
2022/04/01 10:55:16;;;;;;;65.07;10.38;;;;;;;21.92;36.46;92841.63;6147477;23;20167;-79
2022/04/01 10:57:45;;;;;;;57.83;9.15;;;;;;;22.15;35.63;92826.81;6142293;23;20222;-75
2022/04/01 11:00:15;;;;;;;61.67;10.20;;;;;;;22.19;34.99;92811.06;6147168;23;20172;-77
2022/04/01 11:02:44;;;;;;;70.47;9.93;;;;;;;22.47;34.35;92811.84;6148470;23;20179;-76
2022/04/01 11:05:30;;;;;;;65.18;9.88;;;;;;;22.80;33.74;92799.13;6148197;23;20198;-76
2022/04/01 11:08:17;;;;;;;62.60;9.65;;;;;;;23.29;33.28;92799.63;6148141;23;20630;-76
2022/04/01 11:11:09;;;;;;;45.25;7.70;;;;;;;23.32;32.22;92817.50;6147814;23;20535;-77
2022/04/01 11:13:38;;;;;;;43.63;8.00;;;;;;;23.37;32.51;92797.94;6148538;23;20155;-78
2022/04/01 11:16:25;;;;;;;41.97;8.52;;;;;;;22.92;32.00;92808.91;6148167;23;20255;-80
2022/04/01 11:19:13;;;;;;;56.10;9.68;;;;;;;22.42;33.05;92812.09;6147096;23;20160;-80
2022/04/01 11:21:41;;;;;;;62.17;8.63;;;;;;;21.65;34.68;92802.59;6147050;23;20172;-77
2022/04/01 11:24:31;;;;;;;39.60;8.23;;;;;;;21.12;35.89;92833.41;6147045;23;20195;-78
2022/04/01 11:27:08;;;;;;;51.70;9.05;;;;;;;20.76;36.85;92876.31;6148128;23;20221;-75
2022/04/01 11:29:36;;;;;;;52.33;9.30;;;;;;;20.49;37.91;92855.72;6148104;23;20186;-75
2022/04/01 11:32:06;;;;;;;41.83;8.55;;;;;;;20.26;38.07;92839.44;6149253;23;20199;-75
2022/04/01 11:34:53;;;;;;;50.50;8.73;;;;;;;20.12;38.81;92841.53;6142637;23;20180;-76
2022/04/01 11:37:20;;;;;;;53.13;9.15;;;;;;;19.97;39.50;92854.53;6142483;23;20164;-76
2022/04/01 11:39:49;;;;;;;68.50;10.48;;;;;;;19.88;40.60;92854.59;6144892;23;20196;-75
2022/04/01 11:42:16;;;;;;;81.40;11.57;;;;;;;19.82;41.08;92853.22;6143672;23;20206;-73
2022/04/01 11:44:55;;;;;;;45.95;9.85;;;;;;;19.57;42.90;92857.53;6144396;23;20199;-76